sensor_id;sensor_type;location;lat;lon;timestamp;P1;durP1;ratioP1;P2;durP2;ratioP2
48909;SDS011;34721;51.978;7.614;2022-10-16T16:27:10;1.13;;;0.60;;
48909;SDS011;34721;51.978;7.614;2022-10-16T16:29:38;0.73;;;0.45;;
48909;SDS011;34721;51.978;7.614;2022-10-16T16:32:05;1.10;;;0.90;;
48909;SDS011;34721;51.978;7.614;2022-10-16T16:34:32;2.92;;;0.85;;
48909;SDS011;34721;51.978;7.614;2022-10-16T16:36:59;1.80;;;0.45;;
48909;SDS011;34721;51.978;7.614;2022-10-16T16:39:26;1.00;;;0.40;;
48909;SDS011;34721;51.978;7.614;2022-10-16T16:41:54;1.95;;;0.75;;
48909;SDS011;34721;51.978;7.614;2022-10-16T16:44:22;1.25;;;0.50;;
48909;SDS011;34721;51.978;7.614;2022-10-16T16:46:50;1.75;;;0.60;;
48909;SDS011;34721;51.978;7.614;2022-10-16T16:49:17;1.30;;;0.70;;
48909;SDS011;34721;51.978;7.614;2022-10-16T16:51:44;1.58;;;0.90;;
48909;SDS011;34721;51.978;7.614;2022-10-16T16:54:11;0.68;;;0.50;;
48909;SDS011;34721;51.978;7.614;2022-10-16T16:56:39;2.50;;;0.68;;
48909;SDS011;34721;51.978;7.614;2022-10-16T16:59:10;2.92;;;0.95;;
48909;SDS011;34721;51.978;7.614;2022-10-16T17:01:41;1.77;;;0.52;;
48909;SDS011;34721;51.978;7.614;2022-10-16T17:04:08;1.35;;;0.80;;
48909;SDS011;34721;51.978;7.614;2022-10-16T17:09:02;2.58;;;0.95;;
48909;SDS011;34721;51.978;7.614;2022-10-16T17:11:30;1.48;;;0.70;;
48909;SDS011;34721;51.978;7.614;2022-10-16T17:13:58;1.13;;;0.50;;
48909;SDS011;34721;51.978;7.614;2022-10-16T17:16:27;1.40;;;0.50;;
48909;SDS011;34721;51.978;7.614;2022-10-16T17:18:59;0.70;;;0.50;;
48909;SDS011;34721;51.978;7.614;2022-10-16T17:21:26;1.23;;;0.50;;
48909;SDS011;34721;51.978;7.614;2022-10-16T17:23:54;0.55;;;0.40;;
48909;SDS011;34721;51.978;7.614;2022-10-16T17:26:21;1.17;;;0.60;;
48909;SDS011;34721;51.978;7.614;2022-10-16T17:28:50;0.90;;;0.60;;
48909;SDS011;34721;51.978;7.614;2022-10-16T17:31:18;0.77;;;0.43;;
48909;SDS011;34721;51.978;7.614;2022-10-16T17:33:46;1.20;;;0.68;;
48909;SDS011;34721;51.978;7.614;2022-10-16T17:36:14;0.75;;;0.50;;
48909;SDS011;34721;51.978;7.614;2022-10-16T17:38:41;1.00;;;0.40;;
48909;SDS011;34721;51.978;7.614;2022-10-16T17:41:11;2.17;;;1.13;;
48909;SDS011;34721;51.978;7.614;2022-10-16T17:43:39;2.10;;;0.65;;
48909;SDS011;34721;51.978;7.614;2022-10-16T17:46:06;1.23;;;0.52;;
48909;SDS011;34721;51.978;7.614;2022-10-16T17:48:36;0.60;;;0.50;;
48909;SDS011;34721;51.978;7.614;2022-10-16T17:51:04;4.72;;;0.60;;
48909;SDS011;34721;51.978;7.614;2022-10-16T17:53:33;1.75;;;0.70;;
48909;SDS011;34721;51.978;7.614;2022-10-16T17:56:04;0.80;;;0.60;;
48909;SDS011;34721;51.978;7.614;2022-10-16T17:58:32;0.45;;;0.30;;
48909;SDS011;34721;51.978;7.614;2022-10-16T18:01:00;0.85;;;0.40;;
48909;SDS011;34721;51.978;7.614;2022-10-16T18:05:54;1.35;;;0.60;;
48909;SDS011;34721;51.978;7.614;2022-10-16T18:08:22;1.00;;;0.50;;
48909;SDS011;34721;51.978;7.614;2022-10-16T18:10:50;1.45;;;0.47;;
48909;SDS011;34721;51.978;7.614;2022-10-16T18:13:17;1.08;;;0.57;;
48909;SDS011;34721;51.978;7.614;2022-10-16T18:15:44;0.30;;;0.30;;
48909;SDS011;34721;51.978;7.614;2022-10-16T18:18:11;3.55;;;0.43;;
48909;SDS011;34721;51.978;7.614;2022-10-16T18:20:38;0.73;;;0.30;;
48909;SDS011;34721;51.978;7.614;2022-10-16T18:23:05;1.10;;;0.40;;
48909;SDS011;34721;51.978;7.614;2022-10-16T18:25:32;0.80;;;0.30;;
48909;SDS011;34721;51.978;7.614;2022-10-16T18:28:00;0.70;;;0.43;;
48909;SDS011;34721;51.978;7.614;2022-10-16T18:30:27;0.93;;;0.30;;
48909;SDS011;34721;51.978;7.614;2022-10-16T18:32:53;0.40;;;0.30;;
48909;SDS011;34721;51.978;7.614;2022-10-16T18:35:20;2.85;;;0.40;;
48909;SDS011;34721;51.978;7.614;2022-10-16T18:37:47;2.70;;;0.50;;
48909;SDS011;34721;51.978;7.614;2022-10-16T18:40:14;1.27;;;0.55;;
48909;SDS011;34721;51.978;7.614;2022-10-16T18:42:41;2.33;;;0.60;;
48909;SDS011;34721;51.978;7.614;2022-10-16T18:45:09;3.38;;;0.50;;
48909;SDS011;34721;51.978;7.614;2022-10-16T18:47:36;1.20;;;0.30;;
48909;SDS011;34721;51.978;7.614;2022-10-16T18:50:03;1.75;;;0.30;;
48909;SDS011;34721;51.978;7.614;2022-10-16T18:52:30;0.93;;;0.40;;
48909;SDS011;34721;51.978;7.614;2022-10-16T18:54:57;0.52;;;0.40;;
48909;SDS011;34721;51.978;7.614;2022-10-16T18:57:26;0.50;;;0.35;;
48909;SDS011;34721;51.978;7.614;2022-10-16T18:59:54;1.10;;;0.77;;
48909;SDS011;34721;51.978;7.614;2022-10-16T19:02:22;1.17;;;0.40;;
48909;SDS011;34721;51.978;7.614;2022-10-16T19:04:49;1.20;;;0.40;;
48909;SDS011;34721;51.978;7.614;2022-10-16T19:07:16;0.45;;;0.20;;
48909;SDS011;34721;51.978;7.614;2022-10-16T19:09:42;1.65;;;0.60;;
48909;SDS011;34721;51.978;7.614;2022-10-16T19:12:09;0.60;;;0.40;;
48909;SDS011;34721;51.978;7.614;2022-10-16T19:14:36;0.40;;;0.40;;
48909;SDS011;34721;51.978;7.614;2022-10-16T19:17:03;0.38;;;0.30;;
48909;SDS011;34721;51.978;7.614;2022-10-16T19:19:31;0.20;;;0.20;;
48909;SDS011;34721;51.978;7.614;2022-10-16T19:21:58;0.70;;;0.30;;
48909;SDS011;34721;51.978;7.614;2022-10-16T19:24:35;0.32;;;0.30;;
48909;SDS011;34721;51.978;7.614;2022-10-16T19:27:03;0.82;;;0.30;;
48909;SDS011;34721;51.978;7.614;2022-10-16T19:29:30;0.43;;;0.30;;
48909;SDS011;34721;51.978;7.614;2022-10-16T19:31:57;1.00;;;0.40;;
48909;SDS011;34721;51.978;7.614;2022-10-16T19:34:26;0.57;;;0.20;;
48909;SDS011;34721;51.978;7.614;2022-10-16T19:39:21;0.70;;;0.30;;
48909;SDS011;34721;51.978;7.614;2022-10-16T19:41:49;0.13;;;0.13;;
48909;SDS011;34721;51.978;7.614;2022-10-16T19:46:43;0.20;;;0.20;;
48909;SDS011;34721;51.978;7.614;2022-10-16T19:49:12;0.45;;;0.30;;
48909;SDS011;34721;51.978;7.614;2022-10-16T19:51:42;0.28;;;0.20;;
48909;SDS011;34721;51.978;7.614;2022-10-16T19:54:13;0.20;;;0.20;;
48909;SDS011;34721;51.978;7.614;2022-10-16T19:56:40;0.20;;;0.20;;
48909;SDS011;34721;51.978;7.614;2022-10-16T20:01:36;0.32;;;0.13;;
48909;SDS011;34721;51.978;7.614;2022-10-16T20:04:03;0.32;;;0.30;;
48909;SDS011;34721;51.978;7.614;2022-10-16T20:06:30;1.25;;;0.20;;
48909;SDS011;34721;51.978;7.614;2022-10-16T20:08:57;0.15;;;0.15;;
48909;SDS011;34721;51.978;7.614;2022-10-16T20:11:26;0.30;;;0.30;;
48909;SDS011;34721;51.978;7.614;2022-10-16T20:13:54;0.40;;;0.40;;
48909;SDS011;34721;51.978;7.614;2022-10-16T20:18:49;0.25;;;0.20;;
48909;SDS011;34721;51.978;7.614;2022-10-16T20:21:17;0.20;;;0.20;;
48909;SDS011;34721;51.978;7.614;2022-10-16T20:23:45;0.43;;;0.30;;
48909;SDS011;34721;51.978;7.614;2022-10-16T20:26:13;0.20;;;0.20;;
48909;SDS011;34721;51.978;7.614;2022-10-16T20:28:42;0.52;;;0.30;;
48909;SDS011;34721;51.978;7.614;2022-10-16T20:31:10;0.30;;;0.25;;
48909;SDS011;34721;51.978;7.614;2022-10-16T20:33:40;0.25;;;0.13;;
48909;SDS011;34721;51.978;7.614;2022-10-16T20:36:09;0.10;;;0.10;;
48909;SDS011;34721;51.978;7.614;2022-10-16T20:38:36;0.20;;;0.20;;
48909;SDS011;34721;51.978;7.614;2022-10-16T20:41:04;0.22;;;0.22;;
48909;SDS011;34721;51.978;7.614;2022-10-16T20:43:32;0.20;;;0.20;;
48909;SDS011;34721;51.978;7.614;2022-10-16T20:46:01;0.30;;;0.30;;
48909;SDS011;34721;51.978;7.614;2022-10-16T20:48:29;0.30;;;0.20;;
48909;SDS011;34721;51.978;7.614;2022-10-16T20:53:24;0.10;;;0.10;;
48909;SDS011;34721;51.978;7.614;2022-10-16T20:55:50;0.20;;;0.20;;
48909;SDS011;34721;51.978;7.614;2022-10-16T20:58:17;0.32;;;0.32;;
48909;SDS011;34721;51.978;7.614;2022-10-16T21:00:44;0.10;;;0.10;;
48909;SDS011;34721;51.978;7.614;2022-10-16T21:03:12;0.20;;;0.20;;
48909;SDS011;34721;51.978;7.614;2022-10-16T21:05:39;0.10;;;0.10;;
48909;SDS011;34721;51.978;7.614;2022-10-16T21:08:07;0.30;;;0.30;;
48909;SDS011;34721;51.978;7.614;2022-10-16T21:10:33;0.20;;;0.20;;
48909;SDS011;34721;51.978;7.614;2022-10-16T21:13:00;0.20;;;0.20;;
48909;SDS011;34721;51.978;7.614;2022-10-16T21:15:28;0.30;;;0.30;;
48909;SDS011;34721;51.978;7.614;2022-10-16T21:17:54;0.40;;;0.40;;
48909;SDS011;34721;51.978;7.614;2022-10-16T21:20:22;0.20;;;0.20;;
48909;SDS011;34721;51.978;7.614;2022-10-16T21:22:49;2.63;;;0.80;;
48909;SDS011;34721;51.978;7.614;2022-10-16T21:25:16;0.80;;;0.45;;
48909;SDS011;34721;51.978;7.614;2022-10-16T21:27:43;0.63;;;0.30;;
48909;SDS011;34721;51.978;7.614;2022-10-16T21:32:37;0.25;;;0.25;;
48909;SDS011;34721;51.978;7.614;2022-10-16T21:35:04;0.20;;;0.20;;
48909;SDS011;34721;51.978;7.614;2022-10-16T21:37:33;0.10;;;0.10;;
48909;SDS011;34721;51.978;7.614;2022-10-16T21:40:00;0.30;;;0.20;;
48909;SDS011;34721;51.978;7.614;2022-10-16T21:44:54;0.20;;;0.20;;
48909;SDS011;34721;51.978;7.614;2022-10-16T21:47:20;0.20;;;0.20;;
48909;SDS011;34721;51.978;7.614;2022-10-16T21:49:47;0.20;;;0.20;;
48909;SDS011;34721;51.978;7.614;2022-10-16T21:52:14;0.20;;;0.20;;
48909;SDS011;34721;51.978;7.614;2022-10-16T21:54:42;0.20;;;0.20;;
48909;SDS011;34721;51.978;7.614;2022-10-16T21:57:09;0.28;;;0.20;;
48909;SDS011;34721;51.978;7.614;2022-10-16T21:59:36;0.32;;;0.20;;
48909;SDS011;34721;51.978;7.614;2022-10-16T22:02:02;0.20;;;0.20;;
48909;SDS011;34721;51.978;7.614;2022-10-16T22:04:30;0.20;;;0.20;;
48909;SDS011;34721;51.978;7.614;2022-10-16T22:06:56;0.20;;;0.20;;
48909;SDS011;34721;51.978;7.614;2022-10-16T22:09:23;0.25;;;0.20;;
48909;SDS011;34721;51.978;7.614;2022-10-16T22:11:51;0.63;;;0.45;;
48909;SDS011;34721;51.978;7.614;2022-10-16T22:14:19;0.22;;;0.20;;
48909;SDS011;34721;51.978;7.614;2022-10-16T22:16:46;0.10;;;0.10;;
48909;SDS011;34721;51.978;7.614;2022-10-16T22:19:14;0.20;;;0.20;;
48909;SDS011;34721;51.978;7.614;2022-10-16T22:21:43;0.20;;;0.20;;
48909;SDS011;34721;51.978;7.614;2022-10-16T22:24:11;0.20;;;0.20;;
48909;SDS011;34721;51.978;7.614;2022-10-16T22:26:38;0.15;;;0.15;;
48909;SDS011;34721;51.978;7.614;2022-10-16T22:29:06;0.20;;;0.20;;
48909;SDS011;34721;51.978;7.614;2022-10-16T22:31:36;0.22;;;0.20;;
48909;SDS011;34721;51.978;7.614;2022-10-16T22:34:03;0.20;;;0.20;;
48909;SDS011;34721;51.978;7.614;2022-10-16T22:36:30;0.30;;;0.30;;
48909;SDS011;34721;51.978;7.614;2022-10-16T22:38:58;0.32;;;0.20;;
48909;SDS011;34721;51.978;7.614;2022-10-16T22:41:25;0.22;;;0.22;;
48909;SDS011;34721;51.978;7.614;2022-10-16T22:43:52;0.82;;;0.47;;
48909;SDS011;34721;51.978;7.614;2022-10-16T22:46:21;0.20;;;0.20;;
48909;SDS011;34721;51.978;7.614;2022-10-16T22:48:49;0.20;;;0.20;;
48909;SDS011;34721;51.978;7.614;2022-10-16T22:53:44;0.22;;;0.20;;
48909;SDS011;34721;51.978;7.614;2022-10-16T22:56:13;0.28;;;0.20;;
48909;SDS011;34721;51.978;7.614;2022-10-16T22:58:42;0.20;;;0.20;;
48909;SDS011;34721;51.978;7.614;2022-10-16T23:01:10;0.17;;;0.17;;
48909;SDS011;34721;51.978;7.614;2022-10-16T23:03:39;0.20;;;0.20;;
48909;SDS011;34721;51.978;7.614;2022-10-16T23:06:06;0.22;;;0.22;;
48909;SDS011;34721;51.978;7.614;2022-10-16T23:08:33;0.20;;;0.20;;
48909;SDS011;34721;51.978;7.614;2022-10-16T23:11:03;0.38;;;0.38;;
48909;SDS011;34721;51.978;7.614;2022-10-16T23:13:31;0.20;;;0.20;;
48909;SDS011;34721;51.978;7.614;2022-10-16T23:16:01;0.47;;;0.17;;
48909;SDS011;34721;51.978;7.614;2022-10-16T23:18:28;0.20;;;0.20;;
48909;SDS011;34721;51.978;7.614;2022-10-16T23:20:56;0.20;;;0.20;;
48909;SDS011;34721;51.978;7.614;2022-10-16T23:23:23;0.20;;;0.20;;
48909;SDS011;34721;51.978;7.614;2022-10-16T23:25:50;0.20;;;0.20;;
48909;SDS011;34721;51.978;7.614;2022-10-16T23:28:17;0.38;;;0.20;;
48909;SDS011;34721;51.978;7.614;2022-10-16T23:30:43;0.20;;;0.20;;
48909;SDS011;34721;51.978;7.614;2022-10-16T23:33:10;0.45;;;0.20;;
48909;SDS011;34721;51.978;7.614;2022-10-16T23:35:38;0.20;;;0.20;;
48909;SDS011;34721;51.978;7.614;2022-10-16T23:38:07;0.20;;;0.20;;
48909;SDS011;34721;51.978;7.614;2022-10-16T23:40:33;0.43;;;0.30;;
48909;SDS011;34721;51.978;7.614;2022-10-16T23:43:00;0.20;;;0.20;;
48909;SDS011;34721;51.978;7.614;2022-10-16T23:45:27;0.20;;;0.20;;
48909;SDS011;34721;51.978;7.614;2022-10-16T23:47:54;0.10;;;0.10;;
48909;SDS011;34721;51.978;7.614;2022-10-16T23:50:20;0.17;;;0.17;;
48909;SDS011;34721;51.978;7.614;2022-10-16T23:52:47;0.30;;;0.30;;
48909;SDS011;34721;51.978;7.614;2022-10-16T23:55:15;0.30;;;0.25;;
48909;SDS011;34721;51.978;7.614;2022-10-16T23:57:42;0.20;;;0.20;;
